Home > Products > Valid Products > TAF

000
FTUS44 KMRX 301720
TAFTYS
TAF
KTYS 301720Z 3018/3118 01004KT P6SM FEW040
     FM310000 VRB02KT P6SM SCT200
     FM310900 00000KT P6SM BKN100
     FM311400 25006KT P6SM OVC060=



000
FTUS44 KMRX 301720
TAFTRI
TAF
KTRI 301720Z 3018/3118 03003KT P6SM SCT040
     FM310000 00000KT P6SM SCT250
     FM310800 00000KT 4SM BR SCT150
     FM311200 23005KT P6SM OVC100=



000
FTUS44 KMRX 301720
TAFCHA
TAF
KCHA 301720Z 3018/3118 36005KT P6SM FEW040
     FM310000 00000KT P6SM SCT150
     FM310600 00000KT P6SM BKN100
     FM311400 26006KT P6SM OVC050=



000
FTUS44 KMRX 301612 AAC
TAFTRI
TAF AMD
KTRI 301612Z 3016/3112 03003KT P6SM SCT040
     FM310000 00000KT P6SM SCT250
     FM310800 00000KT 4SM BR SCT150=



000
FTUS44 KMRX 301539 AAB
TAFTRI
TAF AMD
KTRI 301539Z 3016/3112 03003KT 2SM BR BKN002
     FM301700 03003KT P6SM SCT040
     FM310000 00000KT P6SM SCT250
     FM310800 00000KT 4SM BR SCT150=



000
FTUS44 KMRX 301400 AAA
TAFTRI
TAF AMD
KTRI 301400Z 3014/3112 00000KT 1SM BR OVC001
     FM301500 00000KT 3SM BR SCT005
     FM301600 03003KT P6SM SCT040
     FM310000 00000KT P6SM SCT250
     FM310800 00000KT 4SM BR SCT150=



000
FTUS44 KMRX 301125
TAFTYS
TAF
KTYS 301125Z 3012/3112 00000KT 5SM BR FEW002
     FM301300 01004KT P6SM FEW040
     FM310000 VRB02KT P6SM SCT200
     FM310900 00000KT P6SM BKN100=



000
FTUS44 KMRX 301125
TAFCHA
TAF
KCHA 301125Z 3012/3112 36005KT P6SM FEW040
     FM310000 00000KT P6SM SCT150
     FM310600 00000KT P6SM BKN100=



000
FTUS44 KMRX 301125
TAFTRI
TAF
KTRI 301125Z 3012/3112 00000KT 1/4SM FG VV001
     FM301300 00000KT 1/2SM FG BKN003
     FM301400 00000KT 3SM BR SCT005
     FM301445 33003KT P6SM SCT040
     FM310000 00000KT P6SM SCT250
     FM310800 00000KT 4SM BR SCT150=



000
FTUS44 KMRX 300838 AAA
TAFTYS
TAF AMD
KTYS 300838Z 3009/3106 VRB02KT P6SM SKC
      TEMPO 3010/3012 6SM BR FEW002
     FM301400 02005KT P6SM FEW040
     FM310000 VRB02KT P6SM SCT200=



000
FTUS44 KMRX 300525
TAFTRI
TAF
KTRI 300525Z 3006/3106 00000KT 1/4SM FG VV001
      TEMPO 3006/3010 3/4SM BR BKN002
     FM301230 00000KT 1/2SM FG BKN003
     FM301330 00000KT 3SM BR BKN006
     FM301430 32004KT P6SM SCT040
     FM310000 00000KT P6SM SCT200=



000
FTUS44 KMRX 300525
TAFTYS
TAF
KTYS 300525Z 3006/3106 00000KT P6SM SKC
     FM300800 00000KT 3SM BR FEW003
     FM301400 02005KT P6SM FEW040
     FM310000 VRB02KT P6SM SCT200=



000
FTUS44 KMRX 300525
TAFCHA
TAF
KCHA 300525Z 3006/3106 01004KT P6SM SKC
     FM301500 35006KT P6SM FEW040
     FM310000 00000KT P6SM SCT150=



000
FTUS44 KMRX 300459 AAB
TAFTRI
TAF AMD
KTRI 300459Z 3005/3024 00000KT 1/4SM FG VV002
     FM301230 00000KT 1/2SM FG BKN003
     FM301330 00000KT 3SM BR BKN006
     FM301430 31004KT P6SM SCT040=



000
FTUS44 KMRX 300459 AAB
TAFTRI
TAF AMD
KTRI 300459Z 3005/3024 00000KT 1/4SM FG VV002
     FM301230 00000KT 1/2SM FG BKN003
     FM301330 00000KT 3SM BR BKN006
     FM301430 31004KT P6SM SCT040=



000
FTUS44 KMRX 300432 AAA
TAFTRI
TAF AMD
KTRI 300432Z 3005/3024 00000KT 1/2SM FG SCT002
     FM300600 00000KT 1/4SM FG BKN002
      TEMPO 3006/3008 1/2SM FG SCT002
     FM301300 00000KT 3SM BR BKN010
     FM301430 31004KT P6SM SCT040=



000
FTUS44 KMRX 292321
TAFTYS
TAF
KTYS 292321Z 3000/3024 VRB03KT P6SM SKC
     FM300800 VRB03KT 3SM BR FEW005
     FM301500 01005KT P6SM FEW045=



000
FTUS44 KMRX 292321
TAFCHA
TAF
KCHA 292321Z 3000/3024 01004KT P6SM SKC
     FM301500 35007KT P6SM FEW250=



000
FTUS44 KMRX 292321
TAFTRI
TAF
KTRI 292321Z 3000/3024 VRB03KT P6SM SKC
     FM300500 00000KT 3SM BR FEW002
     FM300730 00000KT 1/4SM FG BKN002
     FM301300 00000KT 3SM BR BKN010
     FM301430 31004KT P6SM SCT040=



000
FTUS44 KMRX 291725
TAFTYS
TAF
KTYS 291725Z 2918/3018 VRB05KT P6SM OVC040
     FM292100 34005KT P6SM SCT050
     FM300000 VRB03KT P6SM SCT250
      TEMPO 3008/3012 4SM BR=



000
FTUS44 KMRX 291725
TAFCHA
TAF
KCHA 291725Z 2918/3018 01006KT P6SM BKN030
     FM292000 36008KT P6SM SCT035
     FM300000 VRB03KT P6SM SCT250=



000
FTUS44 KMRX 291725
TAFTRI
TAF
KTRI 291725Z 2918/3018 31005KT P6SM OVC035
     FM300000 VRB03KT P6SM SCT040
     FM300600 00000KT 4SM BR SCT250
      TEMPO 3008/3012 1SM BR SCT005
     FM301500 VRB03KT P6SM SCT040=



000
FTUS44 KMRX 291231 AAA
TAFTRI
TAF AMD
KTRI 291231Z 2913/3012 VRB03KT P6SM -RA BKN020 OVC060
      TEMPO 2913/2915 4SM -RA BR OVC020
     FM291800 27006KT P6SM SCT040 BKN250
     FM300000 VRB03KT P6SM SCT250
     FM300600 00000KT 4SM BR SCT250
      TEMPO 3008/3012 1SM BR SCT005=



000
FTUS44 KMRX 291227 AAA
TAFTYS
TAF AMD
KTYS 291227Z 2912/3012 02006KT P6SM VCSH SCT040 OVC080
      TEMPO 2912/2914 4SM -SHRA BR BKN020 OVC040
     FM291600 34008KT P6SM SCT040 BKN250
     FM300000 35005KT P6SM SCT250=



000
FTUS44 KMRX 291224 AAA
TAFCHA
TAF AMD
KCHA 291224Z 2912/3012 01008KT P6SM BKN020 OVC060
      TEMPO 2912/2914 5SM -SHRA BR BKN008 OVC020
     FM291500 36008KT P6SM SCT030 BKN050
     FM300000 VRB03KT P6SM SCT250=



000
FTUS44 KMRX 291129
TAFTYS
TAF
KTYS 291129Z 2912/3012 02007KT 5SM -SHRA BR SCT019 BKN030
      TEMPO 2912/2914 2SM RA BR BKN019
     FM291600 32007KT P6SM VCSH SCT040 BKN050
     FM291800 32007KT P6SM SCT035 SCT120 BKN250
     FM292300 01004KT P6SM SCT150=



000
FTUS44 KMRX 291129
TAFTRI
TAF
KTRI 291129Z 2912/3012 36005KT 5SM -SHRA BR SCT022 BKN035
      TEMPO 2912/2915 2SM RA BR BKN022
     FM291700 33005KT P6SM VCSH SCT030 BKN040
     FM292000 VRB05KT P6SM BKN040 BKN250
     FM300000 VRB03KT P6SM SCT250
      TEMPO 3008/3012 2SM BR SCT005=



000
FTUS44 KMRX 291129
TAFCHA
TAF
KCHA 291129Z 2912/3012 02009KT 5SM -SHRA BR SCT020 OVC035
      TEMPO 2912/2914 2SM RA BR SCT009 BKN018
     FM291500 01007KT P6SM VCSH SCT030 BKN050
     FM291700 35008KT P6SM SCT035 SCT120 BKN250
     FM292300 35004KT P6SM SCT250=



000
FTUS44 KMRX 290919 AAA
TAFTRI
TAF AMD
KTRI 290919Z 2909/3006 30005KT 5SM -SHRA BR BKN025
     FM291700 28005KT P6SM VCSH SCT030 BKN040
     FM292000 28005KT P6SM BKN040 BKN250
     FM300000 30003KT P6SM SCT150=



000
FTUS44 KMRX 290918 AAB
TAFTYS
TAF AMD
KTYS 290918Z 2909/3006 36008KT 5SM -SHRA BR BKN019
     FM291600 30007KT P6SM VCSH SCT040 BKN050
     FM291800 01007KT P6SM SCT035 SCT120 BKN250
     FM292300 01004KT P6SM SCT150=



000
FTUS44 KMRX 290824 AAA
TAFTYS
TAF AMD
KTYS 290824Z 2908/3006 24005KT 5SM -SHRA BR BKN025
      TEMPO 2908/2909 VRB15KT 2SM SHRA BR BKN006
     FM291600 30007KT P6SM VCSH SCT040 BKN050
     FM291800 01007KT P6SM SCT035 SCT120 BKN250
     FM292300 01004KT P6SM SCT150=



000
FTUS44 KMRX 290529
TAFCHA
TAF
KCHA 290529Z 2906/3006 21004KT P6SM VCSH SCT040 BKN250
      TEMPO 2906/2908 5SM BR
     FM290800 22006KT 5SM -SHRA BR SCT026 OVC035
     FM291500 01007KT P6SM VCSH SCT030 BKN050
     FM291800 35008KT P6SM SCT035 SCT120 BKN250
     FM292300 35004KT P6SM SCT250=



000
FTUS44 KMRX 290529
TAFTYS
TAF
KTYS 290529Z 2906/3006 24004KT P6SM VCSH BKN040
     FM290700 24005KT 5SM -SHRA BR SCT024 OVC035
     FM291600 30007KT P6SM VCSH SCT040 BKN050
     FM291800 01007KT P6SM SCT035 SCT120 BKN250
     FM292300 01004KT P6SM SCT150=



000
FTUS44 KMRX 290529
TAFTRI
TAF
KTRI 290529Z 2906/3006 24003KT P6SM SCT050 SCT120 BKN250
      TEMPO 2906/2907 4SM BR
     FM290700 00000KT P6SM VCSH BKN040
     FM290800 00000KT 4SM -SHRA BR BKN025
     FM291700 28005KT P6SM VCSH SCT030 BKN040
     FM292000 28005KT P6SM BKN040 BKN250
     FM300000 30003KT P6SM SCT150=



000
FTUS44 KMRX 290422 AAA
TAFTRI
TAF AMD
KTRI 290422Z 2904/2924 24003KT P6SM SCT050 SCT120 BKN250
      TEMPO 2904/2906 4SM BR
     FM290600 00000KT P6SM VCSH BKN040
     FM290900 00000KT 4SM -SHRA BR BKN025
     FM291700 28005KT P6SM VCSH SCT030 BKN040
     FM292000 25005KT P6SM BKN040 BKN250=



000
FTUS44 KMRX 290422 AAA
TAFTRI
TAF AMD
KTRI 290422Z 2904/2924 24003KT P6SM SCT050 SCT120 BKN250
      TEMPO 2904/2906 4SM BR
     FM290600 00000KT P6SM VCSH BKN040
     FM290900 00000KT 4SM -SHRA BR BKN025
     FM291700 28005KT P6SM VCSH SCT030 BKN040
     FM292000 25005KT P6SM BKN040 BKN250=



000
FTUS44 KMRX 282320
TAFTRI
TAF
KTRI 282320Z 2900/2924 24003KT P6SM SCT050 SCT120 BKN250
     FM290600 00000KT P6SM VCSH BKN040
     FM290900 00000KT 4SM -SHRA BR BKN025
     FM291700 28005KT P6SM VCSH SCT030 BKN040
     FM292000 25005KT P6SM BKN040 BKN250=



000
FTUS44 KMRX 282320
TAFCHA
TAF
KCHA 282320Z 2900/2924 19005KT P6SM SCT050 BKN120
     FM290400 21004KT P6SM VCSH BKN040
     FM290700 22006KT 5SM -SHRA BR SCT026 OVC035
     FM291400 01007KT P6SM VCSH SCT030 BKN050
     FM291700 35008KT P6SM SCT035 SCT120 BKN250=



000
FTUS44 KMRX 282320
TAFTYS
TAF
KTYS 282320Z 2900/2924 23008KT P6SM SCT050 BKN120
     FM290400 24004KT P6SM VCSH BKN040
     FM290700 24005KT 5SM -SHRA BR SCT024 OVC035
     FM291600 30007KT P6SM VCSH SCT040 BKN050
     FM291800 01007KT P6SM SCT035 SCT120 BKN250=



000
FTUS44 KMRX 281902 AAA
TAFTRI
TAF AMD
KTRI 281902Z 2819/2918 27012KT P6SM SCT040 BKN250
      TEMPO 2819/2822 BKN040
     FM290000 26003KT P6SM BKN050
     FM290600 00000KT P6SM VCSH BKN040
     FM290900 00000KT 5SM -SHRA BR SCT020 OVC028
     FM291500 28005KT P6SM VCSH SCT030 BKN040=



000
FTUS44 KMRX 281807 AAA
TAFCHA
TAF AMD
KCHA 281807Z 2818/2918 22010KT P6SM SCT040 BKN250
      TEMPO 2818/2821 BKN040
     FM290000 21005KT P6SM BKN050
     FM290400 21004KT P6SM VCSH BKN040
     FM290700 22006KT 6SM -SHRA BR SCT026 OVC035
     FM291400 01007KT P6SM VCSH SCT040 BKN050=



000
FTUS44 KMRX 281720
TAFCHA
TAF
KCHA 281720Z 2818/2918 22010G18KT P6SM SCT050 BKN250
      TEMPO 2818/2821 BKN050
     FM290000 21005KT P6SM BKN050
     FM290400 21004KT P6SM VCSH BKN040
     FM290700 22006KT 6SM -SHRA BR SCT026 OVC035
     FM291400 01007KT P6SM VCSH SCT040 BKN050=



000
FTUS44 KMRX 281720
TAFTRI
TAF
KTRI 281720Z 2818/2918 28012G20KT P6SM SCT040 BKN250
      TEMPO 2819/2822 BKN040
     FM290000 26003KT P6SM BKN050
     FM290600 00000KT P6SM VCSH BKN040
     FM290900 00000KT 5SM -SHRA BR SCT020 OVC028
     FM291500 28005KT P6SM VCSH SCT030 BKN040=



000
FTUS44 KMRX 281720
TAFTYS
TAF
KTYS 281720Z 2818/2918 22016G25KT P6SM SCT040 BKN250
      TEMPO 2818/2821 5SM BR BKN040
     FM290000 23005KT P6SM BKN050
     FM290400 24004KT P6SM VCSH BKN040
     FM290700 24005KT 5SM -SHRA BR SCT024 OVC035
     FM291500 28007KT P6SM VCSH SCT040 BKN050=



000
FTUS44 KMRX 281659 AAA
TAFTRI
TAF AMD
KTRI 281659Z 2817/2912 28012G20KT P6SM FEW050 BKN250
     FM290000 VRB03KT P6SM SCT045 BKN250
     FM290800 27003KT 6SM -SHRA BR BKN035=



000
FTUS44 KMRX 281658 AAB
TAFTYS
TAF AMD
KTYS 281658Z 2817/2912 23016G25KT P6SM SCT040 BKN250
      TEMPO 2817/2818 5SM BR
     FM281800 23012G22KT P6SM SCT050 BKN250
     FM290500 23005KT P6SM VCSH BKN045
     FM290700 25007KT 5SM -SHRA BR OVC030=



000
FTUS44 KMRX 281658 AAB
TAFTYS
TAF AMD
KTYS 281658Z 2817/2912 23016G25KT P6SM SCT040 BKN250
      TEMPO 2817/2818 5SM BR
     FM281800 23012G22KT P6SM SCT050 BKN250
     FM290500 23005KT P6SM VCSH BKN045
     FM290700 25007KT 5SM -SHRA BR OVC030=



000
FTUS44 KMRX 281606 AAA
TAFTYS
TAF AMD
KTYS 281606Z 2816/2912 24010G16KT P6SM FEW025 SCT040
      TEMPO 2816/2818 5SM BR
     FM281800 23012KT P6SM SCT050 BKN250
     FM290500 23005KT P6SM VCSH BKN045
     FM290700 25007KT 5SM -SHRA BR OVC030=



000
FTUS44 KMRX 281500 AAB
TAFTRI
TAF AMD
KTRI 281529Z 2815/2912 23007KT P6SM FEW050 SCT250
     FM290000 VRB03KT P6SM SCT045 BKN250
     FM290800 27003KT 6SM -SHRA BR BKN035=



000
FTUS44 KMRX 281300 AAB
TAFTYS
TAF AMD
KTYS 281304Z 2813/2912 23005KT 5SM BR SCT250
     FM281400 23005KT P6SM FEW035
     FM281600 23012KT P6SM FEW045 BKN250
     FM290500 23005KT P6SM VCSH BKN045
     FM290700 25007KT 5SM -SHRA BR OVC030=



000
FTUS44 KMRX 281200 AAA
TAFTRI
TAF AMD
KTRI 281252Z 2813/2912 00000KT 4SM BR SCT005 BKN200
     FM281400 23007KT P6SM FEW050 SCT250
     FM290000 VRB03KT P6SM SCT045 BKN250
     FM290800 27003KT 6SM -SHRA BR BKN035=



000
FTUS44 KMRX 281200 AAA
TAFTYS
TAF AMD
KTYS 281215Z 2812/2912 23005KT 5SM BR SCT250
     FM281300 23005KT P6SM FEW035
     FM281600 23012KT P6SM FEW045 BKN250
     FM290500 23005KT P6SM VCSH BKN045
     FM290700 25007KT 5SM -SHRA BR OVC030=



000
FTUS44 KMRX 281136
TAFTRI
TAF
KTRI 281136Z 2812/2912 00000KT 1/4SM FG VV001
     FM281300 00000KT 1SM BR BKN002
     FM281345 VRB02KT 4SM BR SCT005
     FM281430 23007KT P6SM FEW050 SCT250
     FM290000 VRB03KT P6SM SCT045 BKN250
     FM290800 27003KT 6SM -SHRA BR BKN035=



000
FTUS44 KMRX 281136
TAFCHA
TAF
KCHA 281136Z 2812/2912 00000KT P6SM SCT250
     FM281400 21008KT P6SM SCT045 BKN250
     FM290400 21004KT P6SM VCSH BKN040
     FM290700 22006KT 5SM -SHRA BR OVC030=



000
FTUS44 KMRX 281136
TAFTYS
TAF
KTYS 281136Z 2812/2912 23005KT P6SM SCT250
     FM281600 23012KT P6SM FEW045 BKN250
     FM290500 23005KT P6SM VCSH BKN045
     FM290700 25007KT 5SM -SHRA BR OVC030=



000
FTUS44 KMRX 281108 AAB
TAFTRI
TAF AMD
KTRI 281108Z 2811/2906 00000KT 1/4SM FG VV001
     FM281300 00000KT 1SM BR BKN002
     FM281345 VRB02KT 4SM BR SCT005
     FM281430 23007KT P6SM FEW050 SCT250
     FM290000 VRB03KT P6SM SCT045 BKN250=



000
FTUS44 KMRX 281106 AAA
TAFCHA
TAF AMD
KCHA 281106Z 2811/2906 00000KT P6SM SCT250
     FM281400 20010KT P6SM SCT045
     FM290400 21004KT P6SM VCSH BKN040=



000
FTUS44 KMRX 280725 AAA
TAFTRI
TAF AMD
KTRI 280725Z 2807/2906 00000KT 1/4SM FG VV002
     FM281230 00000KT 1 1/2SM BR BKN004
     FM281330 VRB02KT 4SM BR SCT005
     FM281430 23007KT P6SM FEW050 SCT250
     FM290000 VRB03KT P6SM SCT045 BKN250=



000
FTUS44 KMRX 280525
TAFTYS
TAF
KTYS 280525Z 2806/2906 VRB03KT P6SM SKC
     FM281000 22003KT 5SM BR SKC
     FM281400 23012KT P6SM FEW045 SCT250
     FM290500 23005KT P6SM VCSH BKN045=



000
FTUS44 KMRX 280525
TAFCHA
TAF
KCHA 280525Z 2806/2906 19006KT P6SM SCT250
     FM280900 00000KT 4SM BR SKC
     FM281100 00000KT 2SM BR SCT004
      TEMPO 2811/2813 1SM BR BKN003
     FM281400 20010KT P6SM SCT045
     FM290400 21004KT P6SM VCSH BKN040=



000
FTUS44 KMRX 280525
TAFTRI
TAF
KTRI 280525Z 2806/2906 00000KT 3SM BR SCT002
      TEMPO 2806/2808 1 1/2SM BR BKN002
     FM280800 00000KT 1/2SM FG OVC002
     FM281230 00000KT 3SM BR BKN004
     FM281330 VRB03KT P6SM SCT005
     FM281500 23007KT P6SM FEW050 SCT250
     FM290000 VRB03KT P6SM SCT045 BKN250=



000
FTUS44 KMRX 272320
TAFTRI
TAF
KTRI 272320Z 2800/2824 VRB03KT P6SM SKC
     FM281000 22003KT 4SM BR SKC
     FM281400 22007KT P6SM SCT250=



000
FTUS44 KMRX 272320
TAFTYS
TAF
KTYS 272320Z 2800/2824 VRB03KT P6SM SKC
     FM281000 22003KT 4SM BR SKC
     FM281400 22008KT P6SM SCT250=



000
FTUS44 KMRX 272320
TAFCHA
TAF
KCHA 272320Z 2800/2824 19006KT P6SM SCT250
     FM280900 00000KT 3SM BR SKC
     FM281100 00000KT 1SM BR BKN003
      TEMPO 2811/2813 1/4SM FG OVC001
     FM281500 19006KT P6SM SCT250=



    US Dept of Commerce
    National Oceanic and Atmospheric Administration
    National Weather Service
    1325 East West Highway
    Silver Spring, MD 20910
    Page Author: NWS Internet Services Team
Disclaimer
Information Quality
Credits
Glossary
Privacy Policy
Freedom of Information Act (FOIA)
About Us
Career Opportunities